Guernsey, WY

7:00 AM MDT on May 25, 2015 (GMT -0600)
Converse County | | Change Station
CLOSE
Current Station
Airport
Location: Douglas,
Elevation: 4928 ft
Nearby Weather Stations

Elev 4928 ft 42.80 °N, 105.38 °W | Updated 7 minutes ago

Rain
Rain
47 °F
Feels Like 47 °F
N
13
Wind Variable Wind from WNW

Today
High -- | Low -- °F
--% Chance of Precip.
Yesterday
High -- | Low -- °F
Precip. -- in
5:29 AM 8:23 PM
Waxing Crescent, 48% visible
Pressure 29.85 in
Visibility 9.0 miles
Clouds Overcast 900 ft
Dew Point 46 °F
Humidity 97%
Rainfall 0.02 in
Snow Depth Not available.
UV 0 out of 12
Pollen .90 out of 12
Air Quality Not available.
Flu Activity Sporadic
METAR KDGW 251253Z AUTO 30011KT 9SM -RA OVC009 08/08 A2990 RMK AO2 RAB36 SLP106 P0001 T00830078 $

More Conditions Fewer Conditions

Pressure 29.85 in
Visibility 9.0 miles
Clouds Overcast 900 ft
Dew Point 46 °F
Humidity 97%
Rainfall 0.02 in
Snow Depth Not available.
UV 0 out of 12
Pollen .90 out of 12
Air Quality Not available.
Flu Activity Sporadic
METAR KDGW 251253Z AUTO 30011KT 9SM -RA OVC009 08/08 A2990 RMK AO2 RAB36 SLP106 P0001 T00830078 $

More Conditions Fewer Conditions

10-Day Weather Forecast

Almanac

Astronomy

May. 25, 2015 Rise Set
Actual Time
Civil Twilight
Nautical Twilight
Astronomical Twilight
Moon
Length of Visible Light
Length of Day
Tomorrow will be .
, % of the Moon is Illuminated

Today's Extremes

State Highs State Lows

Community

WunderPhotos

Upload Photos

1,823,992 photos uploaded!

WunderBlogs® & News

Nearby

Air Quality

  Air Quality AQ Index Pollutant
Not available.

Snow Depth

Station Depth Elevation

Earthquake Activity

City Distance Mag. Time & Date
Minimum magnitude displayed is 2.5.

Coastal Water Temperatures

Place Temperature

Stations

Nearby Weather Stations

Station Location Temp. Windchill Dew Point Humidity Wind Precip. Elev Updated Type